sensor_id;sensor_type;location;lat;lon;timestamp;noise_LAeq;noise_LA_min;noise_LA_max;noise_LA01;noise_LA95
72686;Laerm;61365;52.162;4.500;2024-03-23T00:54:17;42.98;32.36;45.54;;
72686;Laerm;61365;52.162;4.500;2024-03-23T00:56:43;42.98;32.18;45.06;;
72686;Laerm;61365;52.162;4.500;2024-03-23T00:59:09;42.77;31.46;45.48;;
72686;Laerm;61365;52.162;4.500;2024-03-23T01:01:35;42.70;32.32;45.18;;
72686;Laerm;61365;52.162;4.500;2024-03-23T01:04:02;42.71;32.43;45.93;;
72686;Laerm;61365;52.162;4.500;2024-03-23T01:06:29;42.63;32.24;45.84;;
72686;Laerm;61365;52.162;4.500;2024-03-23T01:08:55;42.63;32.37;46.06;;
72686;Laerm;61365;52.162;4.500;2024-03-23T01:11:21;42.67;32.25;45.56;;
72686;Laerm;61365;52.162;4.500;2024-03-23T01:13:47;42.65;31.94;45.40;;
72686;Laerm;61365;52.162;4.500;2024-03-23T01:16:13;42.81;31.92;45.21;;
72686;Laerm;61365;52.162;4.500;2024-03-23T01:18:39;42.73;31.98;45.51;;
72686;Laerm;61365;52.162;4.500;2024-03-23T01:21:05;42.62;32.20;45.81;;
72686;Laerm;61365;52.162;4.500;2024-03-23T01:23:31;42.65;32.06;45.87;;
72686;Laerm;61365;52.162;4.500;2024-03-23T01:25:57;42.66;37.49;44.74;;
72686;Laerm;61365;52.162;4.500;2024-03-23T01:28:23;42.87;35.23;59.44;;
72686;Laerm;61365;52.162;4.500;2024-03-23T01:30:50;42.82;33.81;61.64;;
72686;Laerm;61365;52.162;4.500;2024-03-23T01:33:16;42.91;33.76;60.75;;
72686;Laerm;61365;52.162;4.500;2024-03-23T01:35:42;42.68;31.52;45.17;;
72686;Laerm;61365;52.162;4.500;2024-03-23T01:38:08;42.74;31.94;45.17;;
72686;Laerm;61365;52.162;4.500;2024-03-23T01:40:34;42.66;31.85;45.64;;
72686;Laerm;61365;52.162;4.500;2024-03-23T01:43:04;42.79;32.19;59.43;;
72686;Laerm;61365;52.162;4.500;2024-03-23T01:45:31;42.75;31.94;46.12;;
72686;Laerm;61365;52.162;4.500;2024-03-23T01:47:58;42.81;32.84;45.68;;
72686;Laerm;61365;52.162;4.500;2024-03-23T01:50:25;42.74;32.63;45.20;;
72686;Laerm;61365;52.162;4.500;2024-03-23T01:52:52;42.76;32.51;45.49;;
72686;Laerm;61365;52.162;4.500;2024-03-23T01:55:18;42.78;32.80;46.08;;
72686;Laerm;61365;52.162;4.500;2024-03-23T01:57:44;42.76;32.65;46.00;;
72686;Laerm;61365;52.162;4.500;2024-03-23T02:00:10;42.87;32.63;58.32;;
72686;Laerm;61365;52.162;4.500;2024-03-23T02:02:44;42.98;32.97;60.99;;
72686;Laerm;61365;52.162;4.500;2024-03-23T02:05:13;43.05;32.40;61.96;;
72686;Laerm;61365;52.162;4.500;2024-03-23T02:07:40;42.87;32.93;46.14;;
72686;Laerm;61365;52.162;4.500;2024-03-23T02:10:07;42.92;32.57;45.34;;
72686;Laerm;61365;52.162;4.500;2024-03-23T02:12:36;42.92;33.08;45.41;;
72686;Laerm;61365;52.162;4.500;2024-03-23T02:15:03;42.83;33.66;44.71;;
72686;Laerm;61365;52.162;4.500;2024-03-23T02:17:30;42.90;32.41;45.49;;
72686;Laerm;61365;52.162;4.500;2024-03-23T02:19:57;42.80;32.23;47.12;;
72686;Laerm;61365;52.162;4.500;2024-03-23T02:22:23;42.79;31.88;45.94;;
72686;Laerm;61365;52.162;4.500;2024-03-23T02:24:49;42.85;32.47;46.03;;
72686;Laerm;61365;52.162;4.500;2024-03-23T02:27:15;42.83;31.82;45.74;;
72686;Laerm;61365;52.162;4.500;2024-03-23T02:29:41;42.90;32.53;47.15;;
72686;Laerm;61365;52.162;4.500;2024-03-23T02:32:07;42.94;31.96;46.27;;
72686;Laerm;61365;52.162;4.500;2024-03-23T02:34:35;42.80;31.84;44.81;;
72686;Laerm;61365;52.162;4.500;2024-03-23T02:37:01;42.78;32.32;45.22;;
72686;Laerm;61365;52.162;4.500;2024-03-23T02:39:28;42.75;35.38;60.21;;
72686;Laerm;61365;52.162;4.500;2024-03-23T02:41:54;42.81;32.22;45.70;;
72686;Laerm;61365;52.162;4.500;2024-03-23T02:44:20;42.87;32.12;45.88;;
72686;Laerm;61365;52.162;4.500;2024-03-23T02:46:46;42.79;32.12;45.97;;
72686;Laerm;61365;52.162;4.500;2024-03-23T02:49:13;42.92;32.10;62.18;;
72686;Laerm;61365;52.162;4.500;2024-03-23T02:51:39;42.83;32.09;46.81;;
72686;Laerm;61365;52.162;4.500;2024-03-23T02:54:05;42.86;32.10;46.84;;
72686;Laerm;61365;52.162;4.500;2024-03-23T02:56:32;42.77;32.59;46.57;;
72686;Laerm;61365;52.162;4.500;2024-03-23T02:58:58;42.84;32.31;45.71;;
72686;Laerm;61365;52.162;4.500;2024-03-23T03:01:24;42.81;32.20;46.04;;
72686;Laerm;61365;52.162;4.500;2024-03-23T03:03:51;42.72;32.21;46.27;;
72686;Laerm;61365;52.162;4.500;2024-03-23T03:06:25;42.64;32.01;46.33;;
72686;Laerm;61365;52.162;4.500;2024-03-23T03:08:51;42.69;32.20;45.74;;
72686;Laerm;61365;52.162;4.500;2024-03-23T03:11:17;42.77;32.24;45.32;;
72686;Laerm;61365;52.162;4.500;2024-03-23T03:13:43;42.68;32.28;45.70;;
72686;Laerm;61365;52.162;4.500;2024-03-23T03:16:10;42.80;32.07;45.26;;
72686;Laerm;61365;52.162;4.500;2024-03-23T03:18:37;42.67;34.56;44.76;;
72686;Laerm;61365;52.162;4.500;2024-03-23T03:21:04;42.63;34.02;57.96;;
72686;Laerm;61365;52.162;4.500;2024-03-23T03:23:31;42.76;33.39;45.00;;
72686;Laerm;61365;52.162;4.500;2024-03-23T03:25:57;42.73;33.07;61.50;;
72686;Laerm;61365;52.162;4.500;2024-03-23T03:28:23;42.69;36.11;44.84;;
72686;Laerm;61365;52.162;4.500;2024-03-23T03:30:51;42.82;34.59;58.83;;
72686;Laerm;61365;52.162;4.500;2024-03-23T03:33:18;42.81;34.26;61.29;;
72686;Laerm;61365;52.162;4.500;2024-03-23T03:35:44;42.71;36.82;44.99;;
72686;Laerm;61365;52.162;4.500;2024-03-23T03:38:11;43.00;34.07;61.16;;
72686;Laerm;61365;52.162;4.500;2024-03-23T03:40:37;43.01;33.63;60.60;;
72686;Laerm;61365;52.162;4.500;2024-03-23T03:43:03;43.22;32.94;62.45;;
72686;Laerm;61365;52.162;4.500;2024-03-23T03:45:29;43.29;32.16;61.60;;
72686;Laerm;61365;52.162;4.500;2024-03-23T03:47:55;43.01;32.09;62.65;;
72686;Laerm;61365;52.162;4.500;2024-03-23T03:50:22;43.26;32.03;62.12;;
72686;Laerm;61365;52.162;4.500;2024-03-23T03:52:48;43.09;31.91;64.23;;
72686;Laerm;61365;52.162;4.500;2024-03-23T03:55:15;42.96;31.73;46.33;;
72686;Laerm;61365;52.162;4.500;2024-03-23T03:57:42;43.14;32.31;62.02;;
72686;Laerm;61365;52.162;4.500;2024-03-23T04:00:08;43.09;32.12;59.28;;
72686;Laerm;61365;52.162;4.500;2024-03-23T04:02:38;43.01;32.05;46.01;;
72686;Laerm;61365;52.162;4.500;2024-03-23T04:05:04;42.92;32.23;46.34;;
72686;Laerm;61365;52.162;4.500;2024-03-23T04:07:31;43.09;31.96;61.05;;
72686;Laerm;61365;52.162;4.500;2024-03-23T04:09:57;43.19;32.08;61.38;;
72686;Laerm;61365;52.162;4.500;2024-03-23T04:12:23;42.96;31.95;45.99;;
72686;Laerm;61365;52.162;4.500;2024-03-23T04:14:50;42.97;32.06;46.67;;
72686;Laerm;61365;52.162;4.500;2024-03-23T04:17:16;42.99;32.26;46.11;;
72686;Laerm;61365;52.162;4.500;2024-03-23T04:19:42;43.06;32.33;62.45;;
72686;Laerm;61365;52.162;4.500;2024-03-23T04:22:08;43.02;32.21;45.91;;
72686;Laerm;61365;52.162;4.500;2024-03-23T04:24:34;43.20;32.03;61.74;;
72686;Laerm;61365;52.162;4.500;2024-03-23T04:27:00;43.30;32.12;62.07;;
72686;Laerm;61365;52.162;4.500;2024-03-23T04:29:27;43.01;32.32;46.62;;
72686;Laerm;61365;52.162;4.500;2024-03-23T04:31:53;43.14;32.00;63.00;;
72686;Laerm;61365;52.162;4.500;2024-03-23T04:34:19;43.01;32.03;45.33;;
72686;Laerm;61365;52.162;4.500;2024-03-23T04:36:45;43.17;32.53;62.52;;
72686;Laerm;61365;52.162;4.500;2024-03-23T04:39:11;43.03;32.49;46.28;;
72686;Laerm;61365;52.162;4.500;2024-03-23T04:41:37;43.12;32.09;60.50;;
72686;Laerm;61365;52.162;4.500;2024-03-23T04:44:03;43.17;31.98;63.36;;
72686;Laerm;61365;52.162;4.500;2024-03-23T04:46:30;43.00;31.84;46.32;;
72686;Laerm;61365;52.162;4.500;2024-03-23T04:48:56;43.01;31.99;46.54;;
72686;Laerm;61365;52.162;4.500;2024-03-23T04:51:23;43.06;32.11;60.69;;
72686;Laerm;61365;52.162;4.500;2024-03-23T04:53:49;43.08;32.07;45.90;;
72686;Laerm;61365;52.162;4.500;2024-03-23T04:56:16;43.27;32.19;61.60;;
72686;Laerm;61365;52.162;4.500;2024-03-23T04:58:43;43.18;32.70;61.09;;
72686;Laerm;61365;52.162;4.500;2024-03-23T05:01:10;43.07;33.02;60.62;;
72686;Laerm;61365;52.162;4.500;2024-03-23T05:03:36;43.81;32.85;61.69;;
72686;Laerm;61365;52.162;4.500;2024-03-23T05:06:03;43.39;33.13;61.85;;
72686;Laerm;61365;52.162;4.500;2024-03-23T05:08:29;43.30;32.11;62.37;;
72686;Laerm;61365;52.162;4.500;2024-03-23T05:10:56;43.20;33.21;61.79;;
72686;Laerm;61365;52.162;4.500;2024-03-23T05:13:22;43.51;32.87;61.31;;
72686;Laerm;61365;52.162;4.500;2024-03-23T05:15:54;43.25;33.92;61.29;;
72686;Laerm;61365;52.162;4.500;2024-03-23T05:18:21;43.41;32.47;62.19;;
72686;Laerm;61365;52.162;4.500;2024-03-23T05:20:47;43.21;33.38;62.09;;
72686;Laerm;61365;52.162;4.500;2024-03-23T05:23:13;43.25;32.78;63.55;;
72686;Laerm;61365;52.162;4.500;2024-03-23T05:25:40;43.28;36.07;60.17;;
72686;Laerm;61365;52.162;4.500;2024-03-23T05:28:06;43.57;32.60;62.95;;
72686;Laerm;61365;52.162;4.500;2024-03-23T05:30:32;43.68;32.65;63.74;;
72686;Laerm;61365;52.162;4.500;2024-03-23T05:32:59;43.77;32.81;63.98;;
72686;Laerm;61365;52.162;4.500;2024-03-23T05:35:25;43.32;33.43;61.60;;
72686;Laerm;61365;52.162;4.500;2024-03-23T05:37:51;43.00;32.98;61.53;;
72686;Laerm;61365;52.162;4.500;2024-03-23T05:40:17;42.89;33.70;61.35;;
72686;Laerm;61365;52.162;4.500;2024-03-23T05:42:43;43.54;33.10;64.24;;
72686;Laerm;61365;52.162;4.500;2024-03-23T05:45:09;43.07;38.20;45.18;;
72686;Laerm;61365;52.162;4.500;2024-03-23T05:47:37;43.09;33.18;62.32;;
72686;Laerm;61365;52.162;4.500;2024-03-23T05:50:03;43.05;33.69;61.11;;
72686;Laerm;61365;52.162;4.500;2024-03-23T05:52:30;43.32;32.50;63.35;;
72686;Laerm;61365;52.162;4.500;2024-03-23T05:54:56;43.13;34.15;62.09;;
72686;Laerm;61365;52.162;4.500;2024-03-23T05:57:22;43.12;33.25;61.99;;
72686;Laerm;61365;52.162;4.500;2024-03-23T05:59:48;43.22;32.88;62.72;;
72686;Laerm;61365;52.162;4.500;2024-03-23T06:02:14;43.06;34.89;60.90;;
72686;Laerm;61365;52.162;4.500;2024-03-23T06:04:40;43.40;32.85;63.81;;
72686;Laerm;61365;52.162;4.500;2024-03-23T06:07:06;43.18;34.63;61.56;;
72686;Laerm;61365;52.162;4.500;2024-03-23T06:09:32;43.38;32.60;62.64;;
72686;Laerm;61365;52.162;4.500;2024-03-23T06:11:59;43.05;34.13;60.11;;
72686;Laerm;61365;52.162;4.500;2024-03-23T06:14:25;43.28;32.68;63.25;;
72686;Laerm;61365;52.162;4.500;2024-03-23T06:16:51;43.12;33.93;61.10;;
72686;Laerm;61365;52.162;4.500;2024-03-23T06:19:17;43.50;32.76;63.49;;
72686;Laerm;61365;52.162;4.500;2024-03-23T06:21:44;43.26;33.17;63.54;;
72686;Laerm;61365;52.162;4.500;2024-03-23T06:24:13;43.42;32.72;63.45;;
72686;Laerm;61365;52.162;4.500;2024-03-23T06:26:39;43.32;33.26;63.34;;
72686;Laerm;61365;52.162;4.500;2024-03-23T06:29:06;43.01;33.37;61.64;;
72686;Laerm;61365;52.162;4.500;2024-03-23T06:31:32;43.59;33.26;61.26;;
72686;Laerm;61365;52.162;4.500;2024-03-23T06:33:58;43.48;32.49;62.49;;
72686;Laerm;61365;52.162;4.500;2024-03-23T06:36:24;43.11;34.41;61.04;;
72686;Laerm;61365;52.162;4.500;2024-03-23T06:38:50;43.25;33.04;61.82;;
72686;Laerm;61365;52.162;4.500;2024-03-23T06:41:17;43.08;32.42;63.63;;
72686;Laerm;61365;52.162;4.500;2024-03-23T06:43:43;42.78;38.57;45.23;;
72686;Laerm;61365;52.162;4.500;2024-03-23T06:46:09;43.09;33.16;64.20;;
72686;Laerm;61365;52.162;4.500;2024-03-23T06:48:35;43.11;32.85;62.64;;
72686;Laerm;61365;52.162;4.500;2024-03-23T06:51:01;43.00;32.56;62.12;;
72686;Laerm;61365;52.162;4.500;2024-03-23T06:53:28;42.81;33.42;63.64;;
72686;Laerm;61365;52.162;4.500;2024-03-23T06:55:54;42.82;33.47;61.72;;
72686;Laerm;61365;52.162;4.500;2024-03-23T06:58:23;42.79;34.11;59.61;;
72686;Laerm;61365;52.162;4.500;2024-03-23T07:00:50;42.89;33.69;62.71;;
72686;Laerm;61365;52.162;4.500;2024-03-23T07:03:20;43.17;32.69;62.79;;
72686;Laerm;61365;52.162;4.500;2024-03-23T07:05:47;43.19;32.52;63.28;;
72686;Laerm;61365;52.162;4.500;2024-03-23T07:08:16;43.15;33.12;62.46;;
72686;Laerm;61365;52.162;4.500;2024-03-23T07:10:48;42.87;32.90;63.44;;
72686;Laerm;61365;52.162;4.500;2024-03-23T07:13:14;43.10;32.82;64.46;;
72686;Laerm;61365;52.162;4.500;2024-03-23T07:15:40;42.72;36.80;44.86;;
72686;Laerm;61365;52.162;4.500;2024-03-23T07:18:06;43.06;32.92;63.95;;
72686;Laerm;61365;52.162;4.500;2024-03-23T07:20:32;43.03;32.82;62.33;;
72686;Laerm;61365;52.162;4.500;2024-03-23T07:22:58;43.25;32.79;62.88;;
72686;Laerm;61365;52.162;4.500;2024-03-23T07:25:24;43.11;34.04;62.19;;
72686;Laerm;61365;52.162;4.500;2024-03-23T07:27:55;43.07;32.89;63.42;;
72686;Laerm;61365;52.162;4.500;2024-03-23T07:30:21;43.11;32.62;63.52;;
72686;Laerm;61365;52.162;4.500;2024-03-23T07:32:47;43.13;33.05;62.88;;
72686;Laerm;61365;52.162;4.500;2024-03-23T07:35:14;42.85;33.68;61.60;;
72686;Laerm;61365;52.162;4.500;2024-03-23T07:37:41;43.00;33.82;61.62;;
72686;Laerm;61365;52.162;4.500;2024-03-23T07:40:07;42.87;34.04;61.38;;
72686;Laerm;61365;52.162;4.500;2024-03-23T07:42:34;42.84;32.83;62.21;;
72686;Laerm;61365;52.162;4.500;2024-03-23T07:45:00;42.91;33.01;60.29;;
72686;Laerm;61365;52.162;4.500;2024-03-23T07:47:26;42.92;33.30;61.96;;
72686;Laerm;61365;52.162;4.500;2024-03-23T07:49:52;43.01;33.20;62.28;;
72686;Laerm;61365;52.162;4.500;2024-03-23T07:52:18;42.82;34.29;62.11;;
72686;Laerm;61365;52.162;4.500;2024-03-23T07:54:45;42.80;33.14;61.77;;
72686;Laerm;61365;52.162;4.500;2024-03-23T07:57:11;42.83;33.57;62.06;;
72686;Laerm;61365;52.162;4.500;2024-03-23T07:59:37;43.14;33.12;64.28;;
72686;Laerm;61365;52.162;4.500;2024-03-23T08:02:03;42.90;33.15;62.31;;
72686;Laerm;61365;52.162;4.500;2024-03-23T08:04:29;43.27;32.63;63.98;;
72686;Laerm;61365;52.162;4.500;2024-03-23T08:06:56;42.88;32.80;62.82;;
72686;Laerm;61365;52.162;4.500;2024-03-23T08:09:22;42.72;33.02;62.87;;
72686;Laerm;61365;52.162;4.500;2024-03-23T08:11:48;42.94;33.16;63.61;;
72686;Laerm;61365;52.162;4.500;2024-03-23T08:14:14;42.52;37.61;44.82;;
72686;Laerm;61365;52.162;4.500;2024-03-23T08:16:40;43.00;32.85;62.58;;
72686;Laerm;61365;52.162;4.500;2024-03-23T08:19:07;42.72;37.54;45.02;;
72686;Laerm;61365;52.162;4.500;2024-03-23T08:21:34;42.78;32.87;62.25;;
72686;Laerm;61365;52.162;4.500;2024-03-23T08:24:00;42.79;33.57;62.92;;
72686;Laerm;61365;52.162;4.500;2024-03-23T08:26:26;42.85;33.77;61.44;;
72686;Laerm;61365;52.162;4.500;2024-03-23T08:28:52;42.99;32.62;62.27;;
72686;Laerm;61365;52.162;4.500;2024-03-23T08:31:18;42.61;35.32;59.04;;
72686;Laerm;61365;52.162;4.500;2024-03-23T08:33:44;42.95;33.08;62.96;;
72686;Laerm;61365;52.162;4.500;2024-03-23T08:36:11;42.82;34.19;60.86;;
72686;Laerm;61365;52.162;4.500;2024-03-23T08:38:40;43.18;32.85;62.69;;
72686;Laerm;61365;52.162;4.500;2024-03-23T08:41:08;42.90;33.59;62.27;;
72686;Laerm;61365;52.162;4.500;2024-03-23T08:43:38;43.13;33.20;61.99;;
72686;Laerm;61365;52.162;4.500;2024-03-23T08:46:16;43.08;33.04;62.54;;
72686;Laerm;61365;52.162;4.500;2024-03-23T08:48:46;43.48;32.79;63.33;;
72686;Laerm;61365;52.162;4.500;2024-03-23T08:51:14;42.87;33.89;62.05;;
72686;Laerm;61365;52.162;4.500;2024-03-23T08:53:41;42.90;33.56;60.63;;
72686;Laerm;61365;52.162;4.500;2024-03-23T08:56:08;42.73;33.74;60.95;;
72686;Laerm;61365;52.162;4.500;2024-03-23T08:58:35;43.22;32.56;63.19;;
72686;Laerm;61365;52.162;4.500;2024-03-23T09:01:11;43.10;32.27;63.04;;
72686;Laerm;61365;52.162;4.500;2024-03-23T09:03:41;43.17;32.90;63.66;;
72686;Laerm;61365;52.162;4.500;2024-03-23T09:06:08;42.99;32.94;62.19;;
72686;Laerm;61365;52.162;4.500;2024-03-23T09:08:35;42.70;34.35;61.24;;
72686;Laerm;61365;52.162;4.500;2024-03-23T09:11:09;43.33;32.33;64.88;;
72686;Laerm;61365;52.162;4.500;2024-03-23T09:13:36;42.81;32.80;62.72;;
72686;Laerm;61365;52.162;4.500;2024-03-23T09:16:03;42.86;33.23;63.33;;
72686;Laerm;61365;52.162;4.500;2024-03-23T09:18:34;42.58;34.20;60.53;;
72686;Laerm;61365;52.162;4.500;2024-03-23T09:21:02;42.61;36.91;59.50;;
72686;Laerm;61365;52.162;4.500;2024-03-23T09:23:28;42.58;36.49;45.02;;
72686;Laerm;61365;52.162;4.500;2024-03-23T09:25:54;43.12;32.34;63.61;;
72686;Laerm;61365;52.162;4.500;2024-03-23T09:28:20;42.80;33.32;61.88;;
72686;Laerm;61365;52.162;4.500;2024-03-23T09:30:46;43.18;32.72;63.21;;
72686;Laerm;61365;52.162;4.500;2024-03-23T09:33:12;43.12;32.35;62.66;;
72686;Laerm;61365;52.162;4.500;2024-03-23T09:35:40;42.77;33.79;62.13;;
72686;Laerm;61365;52.162;4.500;2024-03-23T09:38:06;43.18;32.40;63.53;;
72686;Laerm;61365;52.162;4.500;2024-03-23T09:40:42;42.76;32.92;61.94;;
72686;Laerm;61365;52.162;4.500;2024-03-23T09:43:09;42.97;32.57;62.61;;
72686;Laerm;61365;52.162;4.500;2024-03-23T09:45:39;42.70;32.77;62.50;;
72686;Laerm;61365;52.162;4.500;2024-03-23T09:48:09;42.37;36.84;44.72;;
72686;Laerm;61365;52.162;4.500;2024-03-23T09:50:39;42.89;32.77;63.42;;
72686;Laerm;61365;52.162;4.500;2024-03-23T09:53:10;42.87;32.55;63.42;;
72686;Laerm;61365;52.162;4.500;2024-03-23T09:55:41;42.87;32.56;62.54;;
72686;Laerm;61365;52.162;4.500;2024-03-23T09:58:08;42.74;32.40;62.30;;
72686;Laerm;61365;52.162;4.500;2024-03-23T10:00:35;42.74;32.82;62.75;;
72686;Laerm;61365;52.162;4.500;2024-03-23T10:03:01;42.67;33.22;61.91;;
72686;Laerm;61365;52.162;4.500;2024-03-23T10:05:29;42.72;32.94;62.56;;
72686;Laerm;61365;52.162;4.500;2024-03-23T10:07:57;43.01;32.66;63.25;;
72686;Laerm;61365;52.162;4.500;2024-03-23T10:10:25;42.98;32.60;63.63;;
72686;Laerm;61365;52.162;4.500;2024-03-23T10:12:52;42.72;33.18;64.09;;
72686;Laerm;61365;52.162;4.500;2024-03-23T10:15:24;43.08;32.70;64.39;;
72686;Laerm;61365;52.162;4.500;2024-03-23T10:17:51;42.91;32.74;63.46;;
72686;Laerm;61365;52.162;4.500;2024-03-23T10:20:23;42.64;33.85;61.49;;
72686;Laerm;61365;52.162;4.500;2024-03-23T10:22:52;42.76;32.65;63.52;;
72686;Laerm;61365;52.162;4.500;2024-03-23T10:25:23;42.87;32.79;63.09;;
72686;Laerm;61365;52.162;4.500;2024-03-23T10:27:59;42.75;32.13;60.31;;
72686;Laerm;61365;52.162;4.500;2024-03-23T10:30:26;42.61;32.91;63.50;;
72686;Laerm;61365;52.162;4.500;2024-03-23T10:33:09;42.80;33.14;62.97;;
72686;Laerm;61365;52.162;4.500;2024-03-23T10:35:39;42.51;37.20;44.79;;
72686;Laerm;61365;52.162;4.500;2024-03-23T10:38:06;42.96;33.60;62.45;;
72686;Laerm;61365;52.162;4.500;2024-03-23T10:40:36;43.07;32.79;62.54;;
72686;Laerm;61365;52.162;4.500;2024-03-23T10:43:03;43.17;33.08;62.45;;
72686;Laerm;61365;52.162;4.500;2024-03-23T10:45:30;42.75;33.22;62.68;;
72686;Laerm;61365;52.162;4.500;2024-03-23T10:47:57;42.67;33.69;62.10;;
72686;Laerm;61365;52.162;4.500;2024-03-23T10:50:23;42.56;33.47;61.18;;
72686;Laerm;61365;52.162;4.500;2024-03-23T10:52:52;42.99;32.99;63.34;;
72686;Laerm;61365;52.162;4.500;2024-03-23T10:55:20;42.55;33.17;63.61;;
72686;Laerm;61365;52.162;4.500;2024-03-23T10:57:51;42.63;33.37;63.07;;
72686;Laerm;61365;52.162;4.500;2024-03-23T11:00:18;42.81;33.17;63.04;;
72686;Laerm;61365;52.162;4.500;2024-03-23T11:02:44;42.70;34.14;61.29;;
72686;Laerm;61365;52.162;4.500;2024-03-23T11:05:29;42.91;32.84;64.54;;
72686;Laerm;61365;52.162;4.500;2024-03-23T11:07:56;42.82;33.67;61.82;;
72686;Laerm;61365;52.162;4.500;2024-03-23T11:12:53;42.76;33.22;62.32;;
72686;Laerm;61365;52.162;4.500;2024-03-23T11:15:20;43.07;32.45;64.11;;
72686;Laerm;61365;52.162;4.500;2024-03-23T11:18:09;42.94;32.89;63.56;;
72686;Laerm;61365;52.162;4.500;2024-03-23T11:20:35;43.34;32.54;64.09;;
72686;Laerm;61365;52.162;4.500;2024-03-23T11:23:02;42.54;34.00;61.31;;
72686;Laerm;61365;52.162;4.500;2024-03-23T11:25:29;42.88;32.89;66.76;;
72686;Laerm;61365;52.162;4.500;2024-03-23T11:28:16;42.64;37.34;44.93;;
72686;Laerm;61365;52.162;4.500;2024-03-23T11:30:43;42.55;33.12;63.27;;
72686;Laerm;61365;52.162;4.500;2024-03-23T11:33:09;42.99;32.82;62.80;;
72686;Laerm;61365;52.162;4.500;2024-03-23T11:35:39;42.82;32.93;62.22;;
72686;Laerm;61365;52.162;4.500;2024-03-23T11:38:10;42.87;32.84;63.16;;
72686;Laerm;61365;52.162;4.500;2024-03-23T11:40:41;42.57;33.05;62.45;;
72686;Laerm;61365;52.162;4.500;2024-03-23T11:48:10;42.73;33.27;62.53;;
72686;Laerm;61365;52.162;4.500;2024-03-23T11:50:39;42.72;32.87;62.82;;
72686;Laerm;61365;52.162;4.500;2024-03-23T11:53:15;42.78;33.83;62.09;;
72686;Laerm;61365;52.162;4.500;2024-03-23T11:55:43;42.86;32.20;64.59;;
72686;Laerm;61365;52.162;4.500;2024-03-23T11:58:13;43.23;33.16;63.67;;
72686;Laerm;61365;52.162;4.500;2024-03-23T12:00:39;42.52;32.60;61.78;;
72686;Laerm;61365;52.162;4.500;2024-03-23T12:03:06;43.10;32.20;65.48;;
72686;Laerm;61365;52.162;4.500;2024-03-23T12:05:33;42.66;33.49;61.66;;
72686;Laerm;61365;52.162;4.500;2024-03-23T12:08:22;42.73;32.75;62.79;;
72686;Laerm;61365;52.162;4.500;2024-03-23T12:10:50;43.18;32.65;63.92;;
72686;Laerm;61365;52.162;4.500;2024-03-23T12:13:18;42.56;33.69;60.85;;
72686;Laerm;61365;52.162;4.500;2024-03-23T12:15:49;43.01;32.65;62.98;;
72686;Laerm;61365;52.162;4.500;2024-03-23T12:18:15;42.70;32.62;63.80;;
72686;Laerm;61365;52.162;4.500;2024-03-23T12:20:42;42.79;33.20;61.74;;
72686;Laerm;61365;52.162;4.500;2024-03-23T12:23:11;43.18;32.77;64.21;;
72686;Laerm;61365;52.162;4.500;2024-03-23T12:25:39;42.91;33.38;63.35;;
72686;Laerm;61365;52.162;4.500;2024-03-23T12:28:06;43.09;32.48;64.81;;
72686;Laerm;61365;52.162;4.500;2024-03-23T12:30:34;42.72;34.41;61.64;;
72686;Laerm;61365;52.162;4.500;2024-03-23T12:33:01;42.75;33.40;61.73;;
72686;Laerm;61365;52.162;4.500;2024-03-23T12:35:27;42.72;33.48;62.20;;
72686;Laerm;61365;52.162;4.500;2024-03-23T12:37:54;42.57;36.74;44.58;;
72686;Laerm;61365;52.162;4.500;2024-03-23T12:40:20;42.53;35.56;44.67;;
72686;Laerm;61365;52.162;4.500;2024-03-23T12:42:46;42.49;36.81;44.79;;
72686;Laerm;61365;52.162;4.500;2024-03-23T12:45:12;42.46;32.78;62.58;;
72686;Laerm;61365;52.162;4.500;2024-03-23T12:47:38;42.31;33.89;61.30;;
72686;Laerm;61365;52.162;4.500;2024-03-23T12:50:05;42.29;32.97;64.66;;
72686;Laerm;61365;52.162;4.500;2024-03-23T12:52:32;42.10;35.03;44.21;;
72686;Laerm;61365;52.162;4.500;2024-03-23T12:54:59;42.26;33.89;61.87;;
72686;Laerm;61365;52.162;4.500;2024-03-23T12:57:25;42.28;36.78;44.29;;
72686;Laerm;61365;52.162;4.500;2024-03-23T12:59:52;42.24;36.31;44.49;;
72686;Laerm;61365;52.162;4.500;2024-03-23T13:02:20;42.36;36.37;44.74;;
72686;Laerm;61365;52.162;4.500;2024-03-23T13:04:49;42.32;36.44;44.53;;
72686;Laerm;61365;52.162;4.500;2024-03-23T13:07:18;42.31;36.25;44.58;;
72686;Laerm;61365;52.162;4.500;2024-03-23T13:09:45;42.27;35.64;44.35;;
72686;Laerm;61365;52.162;4.500;2024-03-23T13:12:11;42.34;36.90;54.31;;
72686;Laerm;61365;52.162;4.500;2024-03-23T13:14:41;42.34;36.75;44.80;;
72686;Laerm;61365;52.162;4.500;2024-03-23T13:17:08;42.20;35.90;44.25;;
72686;Laerm;61365;52.162;4.500;2024-03-23T13:19:34;42.07;36.88;44.40;;
72686;Laerm;61365;52.162;4.500;2024-03-23T13:22:00;42.18;33.04;60.96;;
72686;Laerm;61365;52.162;4.500;2024-03-23T13:24:28;42.19;36.45;44.65;;
72686;Laerm;61365;52.162;4.500;2024-03-23T13:26:55;42.38;34.22;61.02;;
72686;Laerm;61365;52.162;4.500;2024-03-23T13:29:22;42.29;33.41;46.75;;
72686;Laerm;61365;52.162;4.500;2024-03-23T13:31:49;42.12;35.83;44.59;;
72686;Laerm;61365;52.162;4.500;2024-03-23T13:34:16;42.33;36.06;44.55;;
72686;Laerm;61365;52.162;4.500;2024-03-23T13:36:46;42.13;36.92;44.37;;
72686;Laerm;61365;52.162;4.500;2024-03-23T13:39:13;42.31;37.35;44.55;;
72686;Laerm;61365;52.162;4.500;2024-03-23T13:41:44;42.17;36.11;44.44;;
72686;Laerm;61365;52.162;4.500;2024-03-23T13:44:13;42.39;36.21;44.81;;
72686;Laerm;61365;52.162;4.500;2024-03-23T13:46:41;42.35;35.84;44.42;;
72686;Laerm;61365;52.162;4.500;2024-03-23T13:49:27;42.37;35.73;44.79;;
72686;Laerm;61365;52.162;4.500;2024-03-23T13:51:54;42.39;36.62;44.86;;
72686;Laerm;61365;52.162;4.500;2024-03-23T13:54:21;42.31;36.86;44.54;;
72686;Laerm;61365;52.162;4.500;2024-03-23T13:56:49;42.43;33.77;60.91;;
72686;Laerm;61365;52.162;4.500;2024-03-23T13:59:15;42.85;32.99;64.06;;
72686;Laerm;61365;52.162;4.500;2024-03-23T14:01:41;42.70;33.29;61.89;;
72686;Laerm;61365;52.162;4.500;2024-03-23T14:04:08;42.48;33.84;44.78;;
72686;Laerm;61365;52.162;4.500;2024-03-23T14:06:34;42.60;34.19;60.25;;
72686;Laerm;61365;52.162;4.500;2024-03-23T14:09:00;42.48;36.96;44.79;;
72686;Laerm;61365;52.162;4.500;2024-03-23T14:11:26;42.48;36.64;44.86;;
72686;Laerm;61365;52.162;4.500;2024-03-23T14:13:54;42.48;36.76;44.54;;
72686;Laerm;61365;52.162;4.500;2024-03-23T14:16:20;42.46;37.95;44.58;;
72686;Laerm;61365;52.162;4.500;2024-03-23T14:18:47;42.50;34.66;44.75;;
72686;Laerm;61365;52.162;4.500;2024-03-23T14:21:13;42.56;37.04;44.56;;
72686;Laerm;61365;52.162;4.500;2024-03-23T14:23:39;42.55;34.24;60.07;;
72686;Laerm;61365;52.162;4.500;2024-03-23T14:26:09;42.59;36.91;45.04;;
72686;Laerm;61365;52.162;4.500;2024-03-23T14:28:35;42.43;34.97;44.54;;
72686;Laerm;61365;52.162;4.500;2024-03-23T14:31:01;42.56;36.93;44.96;;
72686;Laerm;61365;52.162;4.500;2024-03-23T14:33:29;42.51;36.43;45.27;;
72686;Laerm;61365;52.162;4.500;2024-03-23T14:35:56;42.75;32.75;63.10;;
72686;Laerm;61365;52.162;4.500;2024-03-23T14:38:23;42.69;32.88;63.56;;
72686;Laerm;61365;52.162;4.500;2024-03-23T14:40:50;42.50;35.80;44.56;;
72686;Laerm;61365;52.162;4.500;2024-03-23T14:43:18;42.45;37.31;44.46;;
72686;Laerm;61365;52.162;4.500;2024-03-23T14:46:10;42.51;35.60;44.63;;